Time;durP1;ratioP1;P1;durP2;ratioP2;P2;SDS_P1;SDS_P2;PMS_P1;PMS_P2;Temp;Humidity;BMP_temperature;BMP_pressure;BME280_temperature;BME280_humidity;BME280_pressure;Samples;Min_cycle;Max_cycle;Signal;HPM_P1;HPM_P2
2023/01/18 00:02:25;;;;;;;9.63;7.00;;;-0.90;99.90;;;;;;5039880;28;20040;-54
2023/01/18 00:04:50;;;;;;;10.15;6.35;;;-0.90;99.90;;;;;;5039282;28;20076;-53
2023/01/18 00:07:15;;;;;;;11.15;6.90;;;-0.90;99.90;;;;;;5058329;28;20140;-53
2023/01/18 00:09:41;;;;;;;16.17;6.97;;;-1.00;99.90;;;;;;5057638;28;20411;-50
2023/01/18 00:12:07;;;;;;;9.77;6.22;;;-1.00;99.90;;;;;;5040835;28;20038;-52
2023/01/18 00:14:32;;;;;;;12.93;6.20;;;-0.90;99.90;;;;;;5058663;28;20052;-50
2023/01/18 00:16:58;;;;;;;11.82;6.75;;;-0.90;99.90;;;;;;5058033;28;20569;-54
2023/01/18 00:19:23;;;;;;;9.52;6.43;;;-0.90;99.90;;;;;;5059958;28;20027;-54
2023/01/18 00:21:53;;;;;;;10.13;7.03;;;-1.00;99.90;;;;;;5039340;28;20083;-51
2023/01/18 00:24:22;;;;;;;10.77;7.38;;;-1.00;99.90;;;;;;5058289;28;20492;-52
2023/01/18 00:26:48;;;;;;;13.80;7.13;;;-1.00;99.90;;;;;;5057966;28;20434;-53
2023/01/18 00:29:15;;;;;;;14.68;8.23;;;-0.90;99.90;;;;;;5059010;28;20033;-52
2023/01/18 00:31:40;;;;;;;15.00;8.23;;;-1.00;99.90;;;;;;5057675;28;20025;-50
2023/01/18 00:34:06;;;;;;;11.23;7.45;;;-0.90;99.90;;;;;;5041690;28;20532;-51
2023/01/18 00:36:32;;;;;;;17.80;8.45;;;-0.90;99.90;;;;;;5037953;28;20028;-53
2023/01/18 00:38:59;;;;;;;14.32;8.13;;;-0.90;99.90;;;;;;5039874;28;20040;-51
2023/01/18 00:41:25;;;;;;;14.32;8.95;;;-0.90;99.90;;;;;;5058489;28;20115;-49
2023/01/18 00:43:51;;;;;;;14.98;8.63;;;-0.90;99.90;;;;;;5060528;28;20401;-51
2023/01/18 00:46:19;;;;;;;14.63;8.63;;;-0.90;99.90;;;;;;5062016;28;20037;-52
2023/01/18 00:48:44;;;;;;;16.08;9.10;;;-1.00;99.90;;;;;;5060998;28;20508;-50
2023/01/18 00:51:16;;;;;;;13.25;8.82;;;-1.00;99.90;;;;;;5060983;28;20025;-53
2023/01/18 00:53:43;;;;;;;14.55;8.18;;;-1.00;99.90;;;;;;5060709;28;20028;-50
2023/01/18 00:56:11;;;;;;;13.73;9.27;;;-1.00;99.90;;;;;;5060356;28;20089;-54
2023/01/18 00:58:37;;;;;;;14.15;9.27;;;-1.00;99.90;;;;;;5061129;28;20068;-50
2023/01/18 01:01:04;;;;;;;16.92;10.38;;;-1.00;99.90;;;;;;5061729;28;20071;-52
2023/01/18 01:06:42;;;;;;;13.25;9.25;;;-1.10;99.90;;;;;;5061010;28;20037;-52
2023/01/18 01:09:01;;;;;;;19.17;10.63;;;-1.10;99.90;;;;;;5061548;28;20102;-49
2023/01/18 01:11:27;;;;;;;20.08;9.98;;;-1.10;99.90;;;;;;5060753;28;20080;-51
2023/01/18 01:27:33;;;;;;;16.25;9.27;;;-1.20;99.90;;;;;;5061987;28;20029;-51
2023/01/18 01:29:58;;;;;;;14.60;9.35;;;-1.20;99.90;;;;;;5042192;28;20105;-53
2023/01/18 01:32:24;;;;;;;16.77;9.73;;;-1.20;99.90;;;;;;5057905;28;20055;-49
2023/01/18 01:34:52;;;;;;;13.75;9.40;;;-1.20;99.90;;;;;;5060924;28;20041;-50
2023/01/18 01:37:18;;;;;;;14.38;8.82;;;-1.20;99.90;;;;;;5060785;28;20021;-48
2023/01/18 01:39:43;;;;;;;19.30;9.60;;;-1.20;99.90;;;;;;5060191;28;20508;-52
2023/01/18 01:42:10;;;;;;;15.48;9.15;;;-1.20;99.90;;;;;;5059689;28;20039;-52
2023/01/18 01:44:42;;;;;;;19.15;10.38;;;-1.20;99.90;;;;;;5060529;28;20059;-52
2023/01/18 01:47:15;;;;;;;19.55;10.07;;;-1.20;99.90;;;;;;5060551;28;20028;-51
2023/01/18 01:49:47;;;;;;;16.85;9.73;;;-1.20;99.90;;;;;;5060025;28;20017;-49
2023/01/18 01:52:21;;;;;;;16.25;10.13;;;-1.30;99.90;;;;;;5060872;28;20051;-50
2023/01/18 01:55:00;;;;;;;14.88;9.23;;;-1.30;99.90;;;;;;5058023;28;20017;-50
2023/01/18 01:57:48;;;;;;;17.98;9.75;;;-1.20;99.90;;;;;;5060108;28;20025;-49
2023/01/18 02:00:21;;;;;;;14.18;9.38;;;-1.30;99.90;;;;;;5057384;28;20094;-54
2023/01/18 02:02:57;;;;;;;20.48;10.32;;;-1.20;99.90;;;;;;5058333;28;20047;-51
2023/01/18 02:05:24;;;;;;;17.27;9.43;;;-1.30;99.90;;;;;;5059215;28;20091;-49
2023/01/18 02:07:50;;;;;;;14.98;10.25;;;-1.30;99.90;;;;;;5059763;28;20033;-50
2023/01/18 02:10:16;;;;;;;16.13;10.65;;;-1.30;99.90;;;;;;5060882;28;20031;-53
2023/01/18 02:12:46;;;;;;;13.55;9.48;;;-1.20;99.90;;;;;;5041661;28;20032;-53
2023/01/18 02:15:12;;;;;;;18.10;10.13;;;-1.30;99.90;;;;;;5059167;28;20038;-50
2023/01/18 02:18:20;;;;;;;15.10;10.10;;;-1.30;99.90;;;;;;5060054;28;20041;-53
2023/01/18 02:21:00;;;;;;;14.40;9.27;;;-1.20;99.90;;;;;;5060544;28;20398;-53
2023/01/18 02:23:59;;;;;;;14.65;9.40;;;-1.30;99.90;;;;;;5059269;28;20028;-53
2023/01/18 02:26:55;;;;;;;16.33;10.32;;;-1.30;99.90;;;;;;5059213;28;20021;-49
2023/01/18 02:29:47;;;;;;;19.17;10.63;;;-1.30;99.90;;;;;;5034502;28;20032;-53
2023/01/18 02:32:23;;;;;;;15.13;9.93;;;-1.30;99.90;;;;;;5059905;28;20512;-52
2023/01/18 02:34:57;;;;;;;16.30;9.77;;;-1.30;99.90;;;;;;5058967;28;20025;-52
2023/01/18 02:37:37;;;;;;;14.63;9.57;;;-1.30;99.90;;;;;;5059849;28;20403;-54
2023/01/18 02:40:06;;;;;;;16.35;10.45;;;-1.30;99.90;;;;;;5059308;28;20052;-51
2023/01/18 02:48:23;;;;;;;17.70;10.48;;;-1.30;99.90;;;;;;5059776;28;20393;-54
2023/01/18 02:50:50;;;;;;;19.17;10.70;;;-1.30;99.90;;;;;;5057884;28;20404;-50
2023/01/18 02:53:15;;;;;;;15.35;10.18;;;-1.30;99.90;;;;;;5058344;28;20021;-51
2023/01/18 02:55:47;;;;;;;16.73;10.65;;;-1.30;99.90;;;;;;5057875;28;20044;-53
2023/01/18 02:58:23;;;;;;;15.85;10.07;;;-1.30;99.90;;;;;;5058996;28;20114;-53
2023/01/18 03:00:58;;;;;;;15.90;10.30;;;-1.30;99.90;;;;;;5058801;28;20086;-49
2023/01/18 03:03:25;;;;;;;21.10;10.97;;;-1.30;99.90;;;;;;5058383;28;20025;-51
2023/01/18 03:05:56;;;;;;;13.63;10.18;;;-1.30;99.90;;;;;;5058228;28;20271;-51
2023/01/18 03:08:27;;;;;;;20.17;11.80;;;-1.30;99.90;;;;;;5058859;28;20009;-51
2023/01/18 03:10:59;;;;;;;16.73;10.98;;;-1.30;99.90;;;;;;5041132;28;20036;-49
2023/01/18 03:13:43;;;;;;;20.63;12.18;;;-1.30;99.90;;;;;;5059374;28;20736;-50
2023/01/18 03:16:19;;;;;;;19.02;10.52;;;-1.30;99.90;;;;;;5057989;28;20094;-52
2023/01/18 03:19:01;;;;;;;20.73;11.27;;;-1.40;99.90;;;;;;5059578;28;20077;-52
2023/01/18 03:21:39;;;;;;;20.10;11.98;;;-1.40;99.90;;;;;;5058680;28;20094;-53
2023/01/18 03:24:07;;;;;;;18.60;11.18;;;-1.40;99.90;;;;;;5058404;28;20020;-54
2023/01/18 03:26:38;;;;;;;19.88;12.23;;;-1.40;99.90;;;;;;5058032;28;20033;-54
2023/01/18 03:34:44;;;;;;;20.27;12.05;;;-1.40;99.90;;;;;;5057228;28;20047;-50
2023/01/18 03:37:14;;;;;;;17.45;11.30;;;-1.50;99.90;;;;;;5057703;28;20039;-53
2023/01/18 03:39:46;;;;;;;18.20;10.93;;;-1.50;99.90;;;;;;5040759;28;20021;-51
2023/01/18 03:42:23;;;;;;;18.35;11.63;;;-1.60;99.90;;;;;;5040338;28;20116;-51
2023/01/18 03:44:54;;;;;;;15.30;10.60;;;-1.60;99.90;;;;;;5058417;28;20066;-52
2023/01/18 03:47:20;;;;;;;16.25;10.93;;;-1.60;99.90;;;;;;5059161;28;20504;-51
2023/01/18 03:49:46;;;;;;;18.73;11.60;;;-1.70;99.90;;;;;;5058287;28;20024;-51
2023/01/18 03:52:38;;;;;;;19.58;12.90;;;-1.70;99.90;;;;;;5057612;28;20106;-52
2023/01/18 03:55:16;;;;;;;19.05;10.75;;;-1.70;99.90;;;;;;5058198;28;20044;-53
2023/01/18 03:57:49;;;;;;;20.55;11.68;;;-1.70;99.90;;;;;;5058392;28;20155;-50
2023/01/18 04:00:16;;;;;;;15.98;11.10;;;-1.70;99.90;;;;;;5059817;28;20017;-52
2023/01/18 04:02:46;;;;;;;21.10;11.82;;;-1.70;99.90;;;;;;5040185;28;20389;-53
2023/01/18 04:05:12;;;;;;;22.08;12.68;;;-1.70;99.90;;;;;;5040616;28;20120;-51
2023/01/18 04:07:38;;;;;;;20.08;12.35;;;-1.70;99.90;;;;;;5041193;28;20096;-48
2023/01/18 04:10:04;;;;;;;17.83;12.43;;;-1.70;99.90;;;;;;5088574;22;20091;-63
2023/01/18 04:12:30;;;;;;;19.40;12.45;;;-1.70;99.90;;;;;;5066220;28;20507;-62
2023/01/18 04:14:58;;;;;;;25.95;12.13;;;-1.70;99.90;;;;;;5067006;28;20040;-62
2023/01/18 04:17:24;;;;;;;19.02;12.57;;;-1.60;99.90;;;;;;5067407;28;20044;-62
2023/01/18 04:19:50;;;;;;;24.88;12.70;;;-1.60;99.90;;;;;;5064340;28;20044;-62
2023/01/18 04:22:15;;;;;;;17.10;11.80;;;-1.60;99.90;;;;;;5044591;28;20737;-62
2023/01/18 04:24:41;;;;;;;19.25;11.93;;;-1.50;99.90;;;;;;5043643;28;20013;-63
2023/01/18 04:27:07;;;;;;;19.17;11.68;;;-1.60;99.90;;;;;;5060955;28;20682;-63
2023/01/18 04:29:33;;;;;;;19.33;12.00;;;-1.60;99.90;;;;;;5061613;28;20501;-62
2023/01/18 04:31:59;;;;;;;20.75;12.45;;;-1.60;99.90;;;;;;5043055;28;20025;-63
2023/01/18 04:34:24;;;;;;;17.23;10.93;;;-1.60;99.90;;;;;;5043999;28;20016;-62
2023/01/18 04:36:50;;;;;;;19.02;11.95;;;-1.60;99.90;;;;;;5061284;28;20077;-63
2023/01/18 04:39:17;;;;;;;19.48;11.27;;;-1.70;99.90;;;;;;5061268;28;20037;-62
2023/01/18 04:41:43;;;;;;;15.48;10.38;;;-1.70;99.90;;;;;;5061361;28;20033;-63
2023/01/18 04:44:09;;;;;;;16.10;10.93;;;-1.80;99.90;;;;;;5061878;28;20028;-62
2023/01/18 04:46:37;;;;;;;19.67;12.10;;;-1.80;99.90;;;;;;5061055;28;20025;-62
2023/01/18 04:49:03;;;;;;;19.98;11.93;;;-1.80;99.90;;;;;;5043760;28;20048;-63
2023/01/18 04:51:30;;;;;;;16.38;11.25;;;-1.80;99.90;;;;;;5061305;28;20032;-62
2023/01/18 04:53:57;;;;;;;17.92;11.35;;;-1.90;99.90;;;;;;5043737;28;20021;-62
2023/01/18 04:56:22;;;;;;;18.70;10.98;;;-1.90;99.90;;;;;;5060552;28;20033;-62
2023/01/18 04:58:50;;;;;;;17.02;10.77;;;-1.90;99.90;;;;;;5060459;28;20566;-62
2023/01/18 05:01:16;;;;;;;13.20;9.25;;;-1.90;99.90;;;;;;5061449;28;20044;-61
2023/01/18 05:03:42;;;;;;;17.17;10.75;;;-2.00;99.90;;;;;;5062033;28;20020;-62
2023/01/18 05:06:10;;;;;;;17.73;10.98;;;-2.00;99.90;;;;;;5043887;28;20029;-62
2023/01/18 05:08:39;;;;;;;17.75;11.02;;;-2.00;99.90;;;;;;5059828;28;20029;-62
2023/01/18 05:11:10;;;;;;;16.77;10.50;;;-2.00;99.90;;;;;;5061011;28;20027;-63
2023/01/18 05:13:37;;;;;;;16.67;9.75;;;-2.10;99.90;;;;;;5042375;28;20016;-63
2023/01/18 05:16:04;;;;;;;15.73;10.55;;;-2.10;99.90;;;;;;5043509;28;20075;-63
2023/01/18 05:18:30;;;;;;;14.15;9.85;;;-2.10;99.90;;;;;;5043155;28;20028;-63
2023/01/18 05:20:55;;;;;;;17.42;10.95;;;-2.10;99.90;;;;;;5060854;28;20028;-63
2023/01/18 05:23:22;;;;;;;15.50;11.30;;;-2.20;99.90;;;;;;5043125;28;20021;-63
2023/01/18 05:25:52;;;;;;;16.65;10.40;;;-2.20;99.90;;;;;;5045759;28;20535;-63
2023/01/18 05:28:18;;;;;;;14.40;10.00;;;-2.20;99.90;;;;;;5060186;28;20067;-63
2023/01/18 05:30:43;;;;;;;18.25;10.80;;;-2.20;99.90;;;;;;5062183;28;20032;-63
2023/01/18 05:33:09;;;;;;;15.38;9.02;;;-2.20;99.90;;;;;;5060577;28;20576;-63
2023/01/18 05:35:35;;;;;;;15.13;10.75;;;-2.30;99.90;;;;;;5059595;28;20684;-63
2023/01/18 05:38:01;;;;;;;16.05;10.85;;;-2.30;99.90;;;;;;5060802;28;20024;-63
2023/01/18 05:40:26;;;;;;;16.40;10.55;;;-2.30;99.90;;;;;;5060625;28;20033;-63
2023/01/18 05:42:52;;;;;;;18.02;10.60;;;-2.30;99.90;;;;;;5061857;28;20031;-63
2023/01/18 05:45:19;;;;;;;15.82;11.38;;;-2.30;99.90;;;;;;5060851;28;20020;-63
2023/01/18 05:47:44;;;;;;;15.93;10.68;;;-2.30;99.90;;;;;;5059959;28;20017;-63
2023/01/18 05:50:10;;;;;;;14.65;10.40;;;-2.40;99.90;;;;;;5059394;28;20028;-63
2023/01/18 05:52:37;;;;;;;16.75;11.25;;;-2.40;99.90;;;;;;5059949;28;20024;-63
2023/01/18 05:55:03;;;;;;;19.50;11.45;;;-2.40;99.90;;;;;;5058955;28;20102;-63
2023/01/18 05:57:29;;;;;;;18.83;11.50;;;-2.40;99.90;;;;;;5041644;28;20052;-63
2023/01/18 05:59:54;;;;;;;19.33;11.48;;;-2.40;99.90;;;;;;5058832;28;20109;-63
2023/01/18 06:02:20;;;;;;;20.42;12.65;;;-2.40;99.90;;;;;;5058898;28;20029;-63
2023/01/18 06:04:46;;;;;;;17.70;11.43;;;-2.50;99.90;;;;;;5060988;28;20025;-63
2023/01/18 06:07:13;;;;;;;15.43;11.13;;;-2.50;99.90;;;;;;5041261;28;20384;-63
2023/01/18 06:09:39;;;;;;;18.55;11.95;;;-2.50;99.90;;;;;;5058658;28;20099;-63
2023/01/18 06:12:05;;;;;;;19.67;13.23;;;-2.50;99.90;;;;;;5060278;28;20529;-63
2023/01/18 06:14:31;;;;;;;17.02;11.25;;;-2.50;99.90;;;;;;5040702;28;20023;-63
2023/01/18 06:16:56;;;;;;;18.20;12.57;;;-2.50;99.90;;;;;;5059553;28;20031;-63
2023/01/18 06:19:22;;;;;;;17.20;12.00;;;-2.60;99.90;;;;;;5040601;28;20108;-62
2023/01/18 06:21:48;;;;;;;18.25;11.63;;;-2.60;99.90;;;;;;5060743;28;20032;-63
2023/01/18 06:24:13;;;;;;;19.63;12.60;;;-2.60;99.90;;;;;;5059683;28;20016;-62
2023/01/18 06:26:39;;;;;;;22.38;12.45;;;-2.60;99.90;;;;;;5058654;28;20096;-62
2023/01/18 06:29:05;;;;;;;19.17;12.57;;;-2.60;99.90;;;;;;5058893;28;20134;-62
2023/01/18 06:31:30;;;;;;;17.58;12.05;;;-2.60;99.90;;;;;;5059275;28;20488;-62
2023/01/18 06:33:56;;;;;;;24.38;12.13;;;-2.60;99.90;;;;;;5040643;28;20024;-62
2023/01/18 06:36:22;;;;;;;18.42;12.73;;;-2.60;99.90;;;;;;5040509;28;20059;-62
2023/01/18 06:38:47;;;;;;;20.52;13.10;;;-2.60;99.90;;;;;;5059454;28;20016;-62
2023/01/18 06:41:14;;;;;;;23.60;13.20;;;-2.60;99.90;;;;;;5040630;28;20028;-62
2023/01/18 06:43:41;;;;;;;19.02;13.27;;;-2.60;99.90;;;;;;5041613;28;20154;-62
2023/01/18 06:46:08;;;;;;;20.35;14.02;;;-2.60;99.90;;;;;;5040878;28;20024;-62
2023/01/18 06:48:34;;;;;;;25.58;13.82;;;-2.70;99.90;;;;;;5058488;28;20052;-63
2023/01/18 06:50:59;;;;;;;24.80;13.32;;;-2.60;99.90;;;;;;5059007;28;20075;-63
2023/01/18 06:53:25;;;;;;;22.70;13.35;;;-2.60;99.90;;;;;;5058510;28;20209;-63
2023/01/18 06:55:55;;;;;;;18.85;13.30;;;-2.60;99.90;;;;;;5058310;28;20032;-63
2023/01/18 06:58:22;;;;;;;25.20;14.65;;;-2.60;99.90;;;;;;5058190;28;20029;-63
2023/01/18 07:00:48;;;;;;;20.63;13.98;;;-2.60;99.90;;;;;;5041103;28;20029;-63
2023/01/18 07:03:14;;;;;;;23.13;13.68;;;-2.60;99.90;;;;;;5041395;28;20040;-63
2023/01/18 07:05:39;;;;;;;20.33;12.90;;;-2.60;99.90;;;;;;5058209;28;20452;-63
2023/01/18 07:08:05;;;;;;;23.27;14.43;;;-2.60;99.90;;;;;;5058186;28;20040;-63
2023/01/18 07:10:30;;;;;;;25.88;15.55;;;-2.60;99.90;;;;;;5059362;28;20112;-63
2023/01/18 07:12:56;;;;;;;22.05;14.25;;;-2.60;99.90;;;;;;5059016;28;20036;-63
2023/01/18 07:15:21;;;;;;;21.33;15.60;;;-2.60;99.90;;;;;;5040695;28;20120;-62
2023/01/18 07:17:49;;;;;;;22.88;15.30;;;-2.60;99.90;;;;;;5057470;28;20037;-62
2023/01/18 07:20:14;;;;;;;21.98;14.80;;;-2.60;99.90;;;;;;5058558;28;20028;-62
2023/01/18 07:22:40;;;;;;;25.40;14.30;;;-2.70;99.90;;;;;;5059316;28;20029;-62
2023/01/18 07:25:06;;;;;;;28.77;16.05;;;-2.70;99.90;;;;;;5057972;28;20032;-62
2023/01/18 07:27:32;;;;;;;25.52;14.20;;;-2.70;99.90;;;;;;5057905;28;20501;-62
2023/01/18 07:29:57;;;;;;;20.88;13.75;;;-2.70;99.90;;;;;;5040742;28;20108;-62
2023/01/18 07:32:23;;;;;;;20.98;14.02;;;-2.60;99.90;;;;;;5058735;28;20035;-62
2023/01/18 07:34:49;;;;;;;21.90;14.65;;;-2.70;99.90;;;;;;5058054;28;20037;-62
2023/01/18 07:37:14;;;;;;;23.00;14.88;;;-2.60;99.90;;;;;;5058202;28;20045;-63
2023/01/18 07:39:40;;;;;;;20.73;14.15;;;-2.70;99.90;;;;;;5058817;28;20029;-63
2023/01/18 07:42:06;;;;;;;20.80;14.05;;;-2.70;99.90;;;;;;5057881;28;20103;-62
2023/01/18 07:44:31;;;;;;;22.20;15.38;;;-2.70;99.90;;;;;;5039753;28;20432;-65
2023/01/18 07:46:57;;;;;;;21.52;13.93;;;-2.70;99.90;;;;;;5041457;28;20489;-63
2023/01/18 07:49:23;;;;;;;25.10;13.98;;;-2.70;99.90;;;;;;5060201;28;20136;-62
2023/01/18 07:51:48;;;;;;;23.55;13.93;;;-2.70;99.90;;;;;;5059443;28;20037;-63
2023/01/18 07:54:16;;;;;;;22.85;14.95;;;-2.70;99.90;;;;;;5062447;28;20086;-63
2023/01/18 07:56:41;;;;;;;21.98;14.35;;;-2.70;99.90;;;;;;5044302;28;20035;-63
2023/01/18 07:59:07;;;;;;;20.50;13.70;;;-2.70;99.90;;;;;;5062048;28;20048;-62
2023/01/18 08:01:32;;;;;;;22.27;13.65;;;-2.70;99.90;;;;;;5062723;28;20037;-62
2023/01/18 08:03:58;;;;;;;24.88;15.05;;;-2.70;99.90;;;;;;5061880;28;20060;-62
2023/01/18 08:06:25;;;;;;;20.08;13.55;;;-2.70;99.90;;;;;;5045319;28;20123;-62
2023/01/18 08:08:53;;;;;;;19.85;13.85;;;-2.70;99.90;;;;;;5062457;28;20086;-63
2023/01/18 08:11:19;;;;;;;25.45;14.48;;;-2.60;99.90;;;;;;5061973;28;20047;-62
2023/01/18 08:13:45;;;;;;;23.85;14.60;;;-2.60;99.90;;;;;;5062002;28;20025;-63
2023/01/18 08:16:11;;;;;;;21.25;14.30;;;-2.60;99.90;;;;;;5044043;28;20033;-63
2023/01/18 08:18:37;;;;;;;23.52;14.98;;;-2.60;99.90;;;;;;5063002;28;20074;-62
2023/01/18 08:21:03;;;;;;;24.35;14.40;;;-2.60;99.90;;;;;;5062430;28;20028;-62
2023/01/18 08:23:29;;;;;;;24.98;14.18;;;-2.60;99.90;;;;;;5062821;28;20171;-62
2023/01/18 08:25:58;;;;;;;24.13;15.52;;;-2.60;99.90;;;;;;5061931;28;20476;-63
2023/01/18 08:28:24;;;;;;;23.52;14.00;;;-2.60;99.90;;;;;;5062210;28;20677;-62
2023/01/18 08:30:49;;;;;;;25.63;14.30;;;-2.50;99.90;;;;;;5061916;28;20531;-62
2023/01/18 08:33:15;;;;;;;22.25;14.45;;;-2.50;99.90;;;;;;5061956;28;20032;-63
2023/01/18 08:35:43;;;;;;;25.55;15.02;;;-2.50;99.90;;;;;;5043813;28;20091;-62
2023/01/18 08:38:10;;;;;;;23.40;14.73;;;-2.50;99.90;;;;;;5061187;28;20417;-63
2023/01/18 08:40:36;;;;;;;24.17;13.73;;;-2.50;99.90;;;;;;5061590;28;20631;-62
2023/01/18 08:43:03;;;;;;;23.20;15.43;;;-2.50;99.90;;;;;;5044809;28;20029;-63
2023/01/18 08:45:29;;;;;;;21.00;14.70;;;-2.50;99.90;;;;;;5059853;28;20384;-62
2023/01/18 08:47:59;;;;;;;22.20;13.75;;;-2.50;99.90;;;;;;5061933;28;20025;-63
2023/01/18 08:50:26;;;;;;;24.45;13.85;;;-2.50;99.90;;;;;;5061538;28;20028;-62
2023/01/18 08:52:52;;;;;;;20.55;14.43;;;-2.50;99.90;;;;;;5042930;28;20028;-62
2023/01/18 08:55:18;;;;;;;26.98;14.77;;;-2.40;99.90;;;;;;5044017;28;20403;-62
2023/01/18 08:57:44;;;;;;;23.67;14.90;;;-2.40;99.90;;;;;;5060481;28;20024;-62
2023/01/18 09:00:11;;;;;;;21.50;14.15;;;-2.40;99.90;;;;;;5061677;28;20029;-62
2023/01/18 09:02:36;;;;;;;21.80;14.75;;;-2.40;99.90;;;;;;5062285;28;20412;-62
2023/01/18 09:05:02;;;;;;;25.33;14.95;;;-2.30;99.90;;;;;;5060545;28;20028;-62
2023/01/18 09:07:28;;;;;;;23.38;13.60;;;-2.30;99.90;;;;;;5060714;28;20390;-62
2023/01/18 09:09:53;;;;;;;18.00;12.82;;;-2.20;99.90;;;;;;5043207;28;20032;-62
2023/01/18 09:12:19;;;;;;;24.58;14.35;;;-2.20;99.90;;;;;;5061421;28;20044;-62
2023/01/18 09:14:44;;;;;;;22.08;13.43;;;-2.20;99.90;;;;;;5061249;28;20390;-63
2023/01/18 09:17:10;;;;;;;20.83;15.07;;;-2.10;99.90;;;;;;5061365;28;20087;-63
2023/01/18 09:19:35;;;;;;;22.92;14.82;;;-2.10;99.90;;;;;;5042746;28;20396;-63
2023/01/18 09:22:02;;;;;;;21.23;14.82;;;-2.10;99.90;;;;;;5060298;28;20035;-64
2023/01/18 09:24:28;;;;;;;26.05;15.20;;;-2.00;99.90;;;;;;5059258;28;20031;-63
2023/01/18 09:26:54;;;;;;;21.92;14.27;;;-2.00;99.90;;;;;;5060440;28;20028;-61
2023/01/18 09:29:19;;;;;;;26.15;13.82;;;-2.00;99.90;;;;;;5061070;28;20119;-61
2023/01/18 09:31:45;;;;;;;27.98;16.27;;;-1.90;99.90;;;;;;5060474;28;20032;-64
2023/01/18 09:34:12;;;;;;;22.50;15.48;;;-1.90;99.90;;;;;;5059759;28;20036;-64
2023/01/18 09:36:38;;;;;;;23.00;15.18;;;-1.90;99.90;;;;;;5060581;28;20029;-63
2023/01/18 09:39:05;;;;;;;22.88;14.55;;;-1.90;99.90;;;;;;5061372;28;20094;-63
2023/01/18 09:41:41;;;;;;;19.95;13.93;;;-1.80;99.90;;;;;;5060418;28;20044;-64
2023/01/18 09:44:31;;;;;;;19.73;13.20;;;-1.70;99.90;;;;;;5060090;28;20021;-61
2023/01/18 09:47:10;;;;;;;26.33;13.52;;;-1.70;99.90;;;;;;5042967;28;20141;-61
2023/01/18 09:49:36;;;;;;;19.60;13.02;;;-1.50;99.90;;;;;;5042415;28;20099;-63
2023/01/18 09:52:22;;;;;;;20.55;14.52;;;-1.50;99.90;;;;;;5059530;28;20108;-64
2023/01/18 09:55:09;;;;;;;32.67;16.88;;;-1.40;99.90;;;;;;5059850;28;20507;-64
2023/01/18 09:57:55;;;;;;;22.90;14.35;;;-1.30;99.90;;;;;;5060328;28;20056;-63
2023/01/18 10:00:25;;;;;;;24.27;15.50;;;-1.30;99.90;;;;;;5060529;28;20021;-63
2023/01/18 10:02:55;;;;;;;30.90;15.80;;;-1.20;99.90;;;;;;5060375;28;20068;-64
2023/01/18 10:05:28;;;;;;;24.05;15.77;;;-1.10;99.90;;;;;;5060394;28;20025;-63
2023/01/18 10:08:03;;;;;;;30.15;16.55;;;-1.00;99.90;;;;;;5042629;28;20029;-63
2023/01/18 10:10:36;;;;;;;23.38;16.60;;;-0.90;99.90;;;;;;5041123;23;20065;-52
2023/01/18 10:13:32;;;;;;;24.63;15.45;;;-0.80;99.90;;;;;;5027553;28;20036;-52
2023/01/18 10:15:58;;;;;;;25.75;15.57;;;-0.70;99.90;;;;;;5028253;28;20014;-52
2023/01/18 10:18:24;;;;;;;24.05;16.67;;;-0.70;99.90;;;;;;5028770;28;20022;-52
2023/01/18 10:21:03;;;;;;;22.40;16.10;;;-0.60;99.90;;;;;;5027294;28;20367;-49
2023/01/18 10:23:47;;;;;;;24.70;16.25;;;-0.50;99.90;;;;;;5009738;28;20075;-55
2023/01/18 10:26:22;;;;;;;18.38;13.32;;;-0.40;99.90;;;;;;5026886;28;20017;-52
2023/01/18 10:29:11;;;;;;;23.08;14.45;;;-0.30;99.90;;;;;;5027498;28;20021;-54
2023/01/18 10:32:00;;;;;;;22.42;14.07;;;-0.20;99.90;;;;;;5009939;28;20056;-56
2023/01/18 10:34:32;;;;;;;17.95;13.00;;;-0.10;99.90;;;;;;5026419;28;20021;-54
2023/01/18 10:37:15;;;;;;;19.05;13.73;;;0.00;99.90;;;;;;5026900;28;20025;-53
2023/01/18 10:39:49;;;;;;;19.35;13.60;;;0.00;99.90;;;;;;5009569;28;20067;-52
2023/01/18 10:42:33;;;;;;;18.20;12.07;;;0.10;99.90;;;;;;5008720;28;20088;-55
2023/01/18 10:44:58;;;;;;;18.70;13.27;;;0.20;99.90;;;;;;5008945;28;20067;-51
2023/01/18 10:47:32;;;;;;;18.90;12.27;;;0.30;99.90;;;;;;5075705;28;20375;-54
2023/01/18 10:49:58;;;;;;;17.50;12.43;;;0.40;99.90;;;;;;5075251;28;20039;-53
2023/01/18 10:52:27;;;;;;;18.60;12.85;;;0.50;99.90;;;;;;5074250;28;20028;-54
2023/01/18 10:55:00;;;;;;;18.90;12.85;;;0.50;99.90;;;;;;5074701;28;20122;-52
2023/01/18 10:57:55;;;;;;;15.95;11.20;;;0.60;99.90;;;;;;5076232;28;20504;-55
2023/01/18 11:00:29;;;;;;;16.88;10.98;;;0.60;99.90;;;;;;5073409;28;20505;-54
2023/01/18 11:02:57;;;;;;;15.70;9.85;;;0.60;99.90;;;;;;5075906;28;20465;-54
2023/01/18 11:05:29;;;;;;;16.88;10.90;;;0.70;99.90;;;;;;5073928;28;20039;-54
2023/01/18 11:08:32;;;;;;;15.75;10.25;;;0.70;99.90;;;;;;5074772;28;20109;-51
2023/01/18 11:10:58;;;;;;;16.40;10.00;;;0.80;99.90;;;;;;5075003;28;20148;-53
2023/01/18 11:13:26;;;;;;;15.18;9.98;;;0.80;99.90;;;;;;5073628;28;20509;-54
2023/01/18 11:16:08;;;;;;;16.05;10.32;;;0.90;99.90;;;;;;5074317;28;20028;-53
2023/01/18 11:18:34;;;;;;;14.43;9.82;;;0.80;99.90;;;;;;5073514;28;20043;-54
2023/01/18 11:21:01;;;;;;;15.23;9.70;;;0.90;99.90;;;;;;5074206;28;20032;-54
2023/01/18 11:23:36;;;;;;;15.35;10.23;;;0.90;99.90;;;;;;5074430;28;20032;-54
2023/01/18 11:26:14;;;;;;;14.98;9.55;;;0.90;99.90;;;;;;5072560;28;20833;-55
2023/01/18 11:29:00;;;;;;;18.08;11.27;;;0.90;99.90;;;;;;5074568;28;20397;-54
2023/01/18 11:31:29;;;;;;;12.95;9.88;;;0.90;99.90;;;;;;5075320;28;20304;-54
2023/01/18 11:33:58;;;;;;;15.48;9.32;;;0.90;99.90;;;;;;5072625;28;20036;-56
2023/01/18 11:36:35;;;;;;;16.02;9.43;;;0.90;99.90;;;;;;5072500;28;20024;-54
2023/01/18 11:39:33;;;;;;;17.90;10.80;;;0.90;99.90;;;;;;5075215;28;20024;-55
2023/01/18 11:42:12;;;;;;;15.18;9.65;;;0.90;99.90;;;;;;5072472;28;20443;-54
2023/01/18 11:44:49;;;;;;;12.93;9.85;;;0.90;99.90;;;;;;5072606;28;20490;-57
2023/01/18 11:47:26;;;;;;;12.57;9.15;;;0.90;99.90;;;;;;5073427;28;20052;-55
2023/01/18 11:49:58;;;;;;;16.15;10.10;;;0.90;99.90;;;;;;5072775;28;20024;-55
2023/01/18 11:53:03;;;;;;;14.82;9.88;;;0.80;99.90;;;;;;5074437;28;20128;-54
2023/01/18 11:55:35;;;;;;;13.73;9.32;;;0.90;99.90;;;;;;5041319;28;20041;-51
2023/01/18 11:58:00;;;;;;;15.13;10.07;;;0.90;99.90;;;;;;5064864;28;20025;-54
2023/01/18 12:00:30;;;;;;;16.17;10.23;;;0.90;99.90;;;;;;5061098;28;20017;-55
2023/01/18 12:03:12;;;;;;;13.00;9.85;;;0.90;99.90;;;;;;5059987;28;20099;-55
2023/01/18 12:05:53;;;;;;;20.10;10.80;;;0.90;99.90;;;;;;5059348;28;20491;-55
2023/01/18 12:08:26;;;;;;;13.32;9.85;;;1.00;99.90;;;;;;5061053;28;20051;-50
2023/01/18 12:11:16;;;;;;;14.45;9.05;;;0.90;99.90;;;;;;5060153;28;20028;-53
2023/01/18 12:14:05;;;;;;;14.40;9.73;;;1.00;99.90;;;;;;5056574;28;20047;-51
2023/01/18 12:17:08;;;;;;;14.80;9.60;;;1.00;99.90;;;;;;5058618;28;20021;-51
2023/01/18 12:19:42;;;;;;;13.63;9.63;;;1.00;99.90;;;;;;5059920;28;20127;-51
2023/01/18 12:22:22;;;;;;;14.43;10.35;;;1.00;99.90;;;;;;5055660;28;20028;-50
2023/01/18 12:25:16;;;;;;;14.52;9.65;;;1.00;99.90;;;;;;5058268;28;20029;-55
2023/01/18 12:27:42;;;;;;;14.07;9.35;;;1.10;99.90;;;;;;5060916;28;20028;-51
2023/01/18 12:30:29;;;;;;;16.42;9.57;;;1.10;99.90;;;;;;5059375;28;20025;-51
2023/01/18 12:33:32;;;;;;;18.63;9.50;;;1.20;99.90;;;;;;5057315;28;20525;-55
2023/01/18 12:36:23;;;;;;;17.63;10.20;;;1.20;99.90;;;;;;5024817;28;20033;-52
2023/01/18 12:38:52;;;;;;;15.48;10.65;;;1.20;99.90;;;;;;5056231;28;20562;-53
2023/01/18 12:41:43;;;;;;;20.98;14.48;;;1.20;99.90;;;;;;5059797;28;20031;-56
2023/01/18 12:44:24;;;;;;;38.35;18.83;;;1.20;99.90;;;;;;5059119;28;20025;-52
2023/01/18 12:47:14;;;;;;;38.13;20.50;;;1.20;99.90;;;;;;5058131;28;20120;-53
2023/01/18 12:49:45;;;;;;;16.25;11.27;;;1.20;99.90;;;;;;5057427;28;20074;-55
2023/01/18 12:52:13;;;;;;;14.25;9.90;;;1.20;99.90;;;;;;5059344;28;20104;-55
2023/01/18 12:54:46;;;;;;;19.98;9.95;;;1.30;99.90;;;;;;5057318;28;20020;-54
2023/01/18 12:57:13;;;;;;;14.27;8.93;;;1.30;99.90;;;;;;5058952;28;20082;-53
2023/01/18 12:59:43;;;;;;;13.48;8.95;;;1.30;99.90;;;;;;5059104;28;20025;-53
2023/01/18 13:02:21;;;;;;;11.60;8.98;;;1.30;99.90;;;;;;5060468;28;20444;-55
2023/01/18 13:05:04;;;;;;;14.23;9.27;;;1.30;99.90;;;;;;5058517;28;20108;-52
2023/01/18 13:07:40;;;;;;;13.05;9.15;;;1.30;99.90;;;;;;5059936;28;20579;-54
2023/01/18 13:10:17;;;;;;;13.07;8.23;;;1.30;99.90;;;;;;5056089;28;20025;-57
2023/01/18 13:12:43;;;;;;;14.95;8.50;;;1.40;99.90;;;;;;5058545;28;20028;-55
2023/01/18 13:15:25;;;;;;;13.82;9.98;;;1.40;99.90;;;;;;5058298;28;20107;-54
2023/01/18 13:17:53;;;;;;;13.90;8.38;;;1.40;99.90;;;;;;5059844;28;20103;-54